DAL707 KJFK-KLAX
Flight info
| Callsign | DAL707 |
|---|---|
| Flight time | N/A |
| Altitude | 40000 |
| Route | RBV Q430 AIR J80 MCI J24 SLN J102 ALS J44 RSK J64 TBC JASSE Q90 DNERO ANJLL4 |
| Aircraft | A359/H-SDE2E3GHIJ3J4J5LM1ORWXY/LB1D1 |
Departure
| Time | N/A |
|---|---|
| Airport | John F. Kennedy International Airport (KJFK) |
Arrival
| Time | 2026-04-26 04:06 |
|---|---|
| Airport | Los Angeles International Airport (KLAX) |
| Time | Latitude | Longitude | Altitude | Speed | Heading |
|---|---|---|---|---|---|
| 2026-04-26 03:07 | 36.08786 | -111.63413 | 39753 ft | 419 kts | 260° |
| 2026-04-26 03:07 | 36.08457 | -111.66917 | 39766 ft | 420 kts | 260° |
| 2026-04-26 03:07 | 36.07772 | -111.73984 | 39770 ft | 408 kts | 260° |
| 2026-04-26 03:08 | 36.06930 | -111.80871 | 39824 ft | 403 kts | 254° |
| 2026-04-26 03:08 | 36.05155 | -111.87459 | 39861 ft | 405 kts | 249° |
| 2026-04-26 03:09 | 36.03077 | -111.93997 | 39913 ft | 413 kts | 248° |
| 2026-04-26 03:09 | 36.00925 | -112.00638 | 39940 ft | 418 kts | 247° |
| 2026-04-26 03:10 | 35.98763 | -112.07338 | 39946 ft | 419 kts | 248° |
| 2026-04-26 03:10 | 35.96653 | -112.13910 | 39955 ft | 407 kts | 248° |
| 2026-04-26 03:11 | 35.94572 | -112.20380 | 39782 ft | 401 kts | 247° |
| 2026-04-26 03:11 | 35.93554 | -112.23537 | 39163 ft | 401 kts | 247° |
| 2026-04-26 03:11 | 35.92532 | -112.26704 | 38460 ft | 403 kts | 247° |
| 2026-04-26 03:12 | 35.91506 | -112.29875 | 37642 ft | 403 kts | 247° |
| 2026-04-26 03:12 | 35.90462 | -112.33101 | 36753 ft | 406 kts | 247° |
| 2026-04-26 03:12 | 35.89414 | -112.36332 | 36163 ft | 406 kts | 246° |
| 2026-04-26 03:12 | 35.88362 | -112.39574 | 35912 ft | 409 kts | 246° |
| 2026-04-26 03:13 | 35.86224 | -112.46152 | 35891 ft | 419 kts | 246° |
| 2026-04-26 03:13 | 35.84059 | -112.52804 | 35825 ft | 417 kts | 246° |
| 2026-04-26 03:14 | 35.81900 | -112.59423 | 35818 ft | 416 kts | 246° |
| 2026-04-26 03:14 | 35.79740 | -112.66026 | 35817 ft | 416 kts | 246° |
| 2026-04-26 03:15 | 35.77576 | -112.72626 | 35807 ft | 415 kts | 246° |
| 2026-04-26 03:15 | 35.75409 | -112.79224 | 35817 ft | 416 kts | 246° |
| 2026-04-26 03:16 | 35.73233 | -112.85831 | 35796 ft | 417 kts | 246° |
| 2026-04-26 03:16 | 35.71048 | -112.92450 | 35794 ft | 417 kts | 246° |
| 2026-04-26 03:17 | 35.68862 | -112.99061 | 35791 ft | 417 kts | 246° |
| 2026-04-26 03:17 | 35.66670 | -113.05676 | 35768 ft | 417 kts | 246° |
| 2026-04-26 03:18 | 35.64484 | -113.12260 | 35788 ft | 414 kts | 246° |
| 2026-04-26 03:18 | 35.62305 | -113.18805 | 35774 ft | 413 kts | 246° |
| 2026-04-26 03:19 | 35.60126 | -113.25341 | 35756 ft | 413 kts | 246° |
| 2026-04-26 03:19 | 35.57958 | -113.31828 | 35753 ft | 413 kts | 246° |
| 2026-04-26 03:20 | 35.55771 | -113.38350 | 35735 ft | 413 kts | 246° |
| 2026-04-26 03:20 | 35.53580 | -113.44869 | 35740 ft | 413 kts | 245° |
| 2026-04-26 03:21 | 35.51383 | -113.51397 | 35726 ft | 414 kts | 245° |
| 2026-04-26 03:21 | 35.49185 | -113.57917 | 35726 ft | 414 kts | 245° |
| 2026-04-26 03:22 | 35.47336 | -113.63388 | 35717 ft | 414 kts | 245° |
| 2026-04-26 03:22 | 35.45141 | -113.69869 | 35744 ft | 414 kts | 245° |
| 2026-04-26 03:23 | 35.42930 | -113.76386 | 35760 ft | 414 kts | 245° |
| 2026-04-26 03:23 | 35.40709 | -113.82916 | 35781 ft | 415 kts | 245° |
| 2026-04-26 03:24 | 35.38489 | -113.89434 | 35799 ft | 415 kts | 245° |
| 2026-04-26 03:24 | 35.36265 | -113.95946 | 35812 ft | 414 kts | 245° |
| 2026-04-26 03:25 | 35.34035 | -114.02462 | 35812 ft | 414 kts | 245° |
| 2026-04-26 03:25 | 35.31803 | -114.08971 | 35802 ft | 415 kts | 245° |
| 2026-04-26 03:26 | 35.29562 | -114.15487 | 35771 ft | 415 kts | 245° |
| 2026-04-26 03:26 | 35.27321 | -114.21994 | 35746 ft | 415 kts | 245° |
| 2026-04-26 03:27 | 35.25077 | -114.28501 | 35720 ft | 415 kts | 245° |
| 2026-04-26 03:27 | 35.22828 | -114.35004 | 35688 ft | 415 kts | 245° |
| 2026-04-26 03:28 | 35.20579 | -114.41498 | 35688 ft | 415 kts | 245° |
| 2026-04-26 03:28 | 35.18302 | -114.48047 | 35676 ft | 424 kts | 245° |
| 2026-04-26 03:29 | 35.15986 | -114.54699 | 35677 ft | 426 kts | 245° |
| 2026-04-26 03:29 | 35.13668 | -114.61350 | 35673 ft | 426 kts | 245° |
| 2026-04-26 03:30 | 35.11354 | -114.68003 | 35678 ft | 425 kts | 245° |
| 2026-04-26 03:30 | 35.09054 | -114.74609 | 35675 ft | 425 kts | 244° |
| 2026-04-26 03:31 | 35.06736 | -114.81252 | 35687 ft | 425 kts | 244° |
| 2026-04-26 03:31 | 35.04425 | -114.87871 | 35685 ft | 423 kts | 245° |
| 2026-04-26 03:32 | 35.01974 | -114.94383 | 35695 ft | 421 kts | 240° |
| 2026-04-26 03:32 | 34.99174 | -115.00646 | 35697 ft | 421 kts | 240° |
| 2026-04-26 03:33 | 34.96400 | -115.06945 | 35695 ft | 423 kts | 240° |
| 2026-04-26 03:33 | 34.93653 | -115.13239 | 35695 ft | 423 kts | 240° |
| 2026-04-26 03:34 | 34.90891 | -115.19576 | 35701 ft | 423 kts | 240° |
| 2026-04-26 03:34 | 34.88128 | -115.25911 | 35703 ft | 423 kts | 240° |
| 2026-04-26 03:35 | 34.85360 | -115.32248 | 35706 ft | 424 kts | 240° |
| 2026-04-26 03:35 | 34.82580 | -115.38589 | 35705 ft | 425 kts | 240° |
| 2026-04-26 03:36 | 34.79781 | -115.44928 | 35709 ft | 425 kts | 240° |
| 2026-04-26 03:36 | 34.77207 | -115.51413 | 35709 ft | 426 kts | 244° |
| 2026-04-26 03:37 | 34.74845 | -115.58024 | 35717 ft | 426 kts | 244° |
| 2026-04-26 03:37 | 34.72459 | -115.64571 | 35746 ft | 426 kts | 243° |
| 2026-04-26 03:38 | 34.70028 | -115.71177 | 35715 ft | 425 kts | 243° |
| 2026-04-26 03:38 | 34.67618 | -115.77698 | 35715 ft | 425 kts | 243° |
| 2026-04-26 03:39 | 34.65192 | -115.84247 | 35713 ft | 425 kts | 243° |
| 2026-04-26 03:39 | 34.62765 | -115.90792 | 35718 ft | 425 kts | 243° |
| 2026-04-26 03:40 | 34.60350 | -115.97351 | 35731 ft | 426 kts | 243° |
| 2026-04-26 03:40 | 34.57926 | -116.03920 | 35727 ft | 427 kts | 243° |
| 2026-04-26 03:41 | 34.55494 | -116.10497 | 35728 ft | 427 kts | 243° |
| 2026-04-26 03:41 | 34.53066 | -116.17051 | 35712 ft | 421 kts | 243° |
| 2026-04-26 03:42 | 34.50715 | -116.23421 | 35733 ft | 409 kts | 244° |
| 2026-04-26 03:42 | 34.48404 | -116.29713 | 35747 ft | 408 kts | 244° |
| 2026-04-26 03:43 | 34.46072 | -116.36006 | 35743 ft | 410 kts | 244° |
| 2026-04-26 03:43 | 34.43744 | -116.42257 | 35133 ft | 402 kts | 244° |
| 2026-04-26 03:44 | 34.42589 | -116.45349 | 34161 ft | 407 kts | 244° |
| 2026-04-26 03:44 | 34.41406 | -116.48509 | 33108 ft | 413 kts | 243° |
| 2026-04-26 03:44 | 34.40151 | -116.51652 | 31966 ft | 419 kts | 241° |
| 2026-04-26 03:44 | 34.38855 | -116.54747 | 31393 ft | 413 kts | 241° |
| 2026-04-26 03:45 | 34.37572 | -116.57815 | 30892 ft | 406 kts | 242° |
| 2026-04-26 03:45 | 34.36299 | -116.60872 | 30267 ft | 404 kts | 241° |
| 2026-04-26 03:45 | 34.35055 | -116.63851 | 30110 ft | 390 kts | 241° |
| 2026-04-26 03:45 | 34.33852 | -116.66739 | 29941 ft | 378 kts | 242° |
| 2026-04-26 03:46 | 34.32684 | -116.69579 | 29288 ft | 377 kts | 242° |
| 2026-04-26 03:46 | 34.31541 | -116.72421 | 28715 ft | 373 kts | 242° |
| 2026-04-26 03:46 | 34.30420 | -116.75218 | 28223 ft | 367 kts | 242° |
| 2026-04-26 03:47 | 34.28210 | -116.80718 | 27191 ft | 360 kts | 242° |
| 2026-04-26 03:47 | 34.27119 | -116.83428 | 26661 ft | 357 kts | 242° |
| 2026-04-26 03:47 | 34.26034 | -116.86117 | 26148 ft | 354 kts | 242° |
| 2026-04-26 03:47 | 34.25009 | -116.88656 | 25754 ft | 351 kts | 242° |
| 2026-04-26 03:48 | 34.23947 | -116.91287 | 25293 ft | 347 kts | 242° |
| 2026-04-26 03:48 | 34.22892 | -116.93896 | 24737 ft | 345 kts | 242° |
| 2026-04-26 03:48 | 34.21841 | -116.96493 | 24208 ft | 343 kts | 242° |
| 2026-04-26 03:48 | 34.20906 | -116.99133 | 23704 ft | 341 kts | 247° |
| 2026-04-26 03:49 | 34.20142 | -117.01843 | 23201 ft | 340 kts | 248° |
| 2026-04-26 03:49 | 34.19414 | -117.04555 | 22555 ft | 338 kts | 249° |
| 2026-04-26 03:49 | 34.18688 | -117.07248 | 21976 ft | 336 kts | 248° |
| 2026-04-26 03:49 | 34.17970 | -117.09917 | 21479 ft | 333 kts | 248° |
| 2026-04-26 03:50 | 34.17253 | -117.12568 | 20955 ft | 331 kts | 248° |
| 2026-04-26 03:50 | 34.16541 | -117.15197 | 20431 ft | 328 kts | 248° |
| 2026-04-26 03:50 | 34.15838 | -117.17797 | 19953 ft | 325 kts | 249° |
| 2026-04-26 03:50 | 34.15124 | -117.20386 | 19488 ft | 324 kts | 249° |
| 2026-04-26 03:51 | 34.14412 | -117.22961 | 18971 ft | 323 kts | 249° |
| 2026-04-26 03:51 | 34.13705 | -117.25521 | 18467 ft | 321 kts | 249° |
| 2026-04-26 03:51 | 34.13001 | -117.28072 | 17895 ft | 320 kts | 249° |
| 2026-04-26 03:51 | 34.12301 | -117.30608 | 17399 ft | 317 kts | 250° |
| 2026-04-26 03:52 | 34.11606 | -117.33124 | 16899 ft | 315 kts | 250° |
| 2026-04-26 03:52 | 34.10917 | -117.35618 | 16389 ft | 313 kts | 250° |
| 2026-04-26 03:52 | 34.10235 | -117.38104 | 15889 ft | 311 kts | 251° |
| 2026-04-26 03:52 | 34.09604 | -117.40600 | 15383 ft | 310 kts | 252° |
| 2026-04-26 03:53 | 34.08992 | -117.43090 | 14983 ft | 305 kts | 252° |
| 2026-04-26 03:53 | 34.08402 | -117.45486 | 14792 ft | 293 kts | 252° |
| 2026-04-26 03:53 | 34.07817 | -117.47838 | 14374 ft | 293 kts | 252° |
| 2026-04-26 03:53 | 34.07255 | -117.50085 | 13930 ft | 293 kts | 252° |
| 2026-04-26 03:54 | 34.06669 | -117.52433 | 13520 ft | 293 kts | 252° |
| 2026-04-26 03:54 | 34.06066 | -117.54788 | 13128 ft | 294 kts | 252° |
| 2026-04-26 03:54 | 34.05468 | -117.57115 | 12747 ft | 293 kts | 252° |
| 2026-04-26 03:54 | 34.04868 | -117.59454 | 12373 ft | 291 kts | 252° |
| 2026-04-26 03:55 | 34.04270 | -117.61786 | 11980 ft | 290 kts | 252° |
| 2026-04-26 03:55 | 34.03674 | -117.64109 | 11604 ft | 290 kts | 252° |
| 2026-04-26 03:55 | 34.03077 | -117.66424 | 11217 ft | 288 kts | 252° |
| 2026-04-26 03:55 | 34.02487 | -117.68730 | 10848 ft | 287 kts | 252° |
| 2026-04-26 03:56 | 34.02076 | -117.71079 | 10474 ft | 287 kts | 260° |
| 2026-04-26 03:56 | 34.01831 | -117.73430 | 10268 ft | 277 kts | 262° |
| 2026-04-26 03:56 | 34.01619 | -117.75674 | 9953 ft | 270 kts | 262° |
| 2026-04-26 03:56 | 34.01407 | -117.77917 | 9431 ft | 269 kts | 262° |
| 2026-04-26 03:57 | 34.01195 | -117.80145 | 9007 ft | 266 kts | 262° |
| 2026-04-26 03:57 | 34.00982 | -117.82338 | 8668 ft | 262 kts | 262° |
| 2026-04-26 03:57 | 34.00774 | -117.84484 | 8322 ft | 261 kts | 262° |
| 2026-04-26 03:57 | 34.00567 | -117.86660 | 7976 ft | 261 kts | 262° |
| 2026-04-26 03:58 | 34.00352 | -117.88833 | 7630 ft | 260 kts | 262° |
| 2026-04-26 03:58 | 34.00199 | -117.91000 | 7256 ft | 260 kts | 266° |
| 2026-04-26 03:58 | 34.00065 | -117.93171 | 6916 ft | 259 kts | 261° |
| 2026-04-26 03:58 | 33.99834 | -117.95324 | 6568 ft | 260 kts | 261° |
| 2026-04-26 03:59 | 33.99601 | -117.97480 | 6361 ft | 258 kts | 261° |
| 2026-04-26 03:59 | 33.99347 | -117.99624 | 6338 ft | 260 kts | 260° |
| 2026-04-26 03:59 | 33.99115 | -118.01761 | 6333 ft | 249 kts | 262° |
| 2026-04-26 03:59 | 33.98925 | -118.03727 | 6238 ft | 237 kts | 262° |
| 2026-04-26 04:00 | 33.98735 | -118.05626 | 6006 ft | 231 kts | 261° |
| 2026-04-26 04:00 | 33.98537 | -118.07530 | 5671 ft | 229 kts | 263° |
| 2026-04-26 04:00 | 33.98345 | -118.09430 | 5302 ft | 228 kts | 263° |
| 2026-04-26 04:00 | 33.98155 | -118.11308 | 4942 ft | 227 kts | 263° |
| 2026-04-26 04:01 | 33.97962 | -118.13191 | 4613 ft | 225 kts | 263° |
| 2026-04-26 04:01 | 33.97772 | -118.15055 | 4287 ft | 223 kts | 263° |
| 2026-04-26 04:01 | 33.97591 | -118.16838 | 4001 ft | 221 kts | 263° |
| 2026-04-26 04:01 | 33.97405 | -118.18658 | 3697 ft | 214 kts | 263° |
| 2026-04-26 04:02 | 33.97229 | -118.20389 | 3429 ft | 202 kts | 263° |
| 2026-04-26 04:02 | 33.97063 | -118.22024 | 3180 ft | 193 kts | 263° |
| 2026-04-26 04:02 | 33.96955 | -118.23075 | 2998 ft | 189 kts | 263° |
| 2026-04-26 04:02 | 33.96751 | -118.25083 | 2697 ft | 180 kts | 263° |
| 2026-04-26 04:03 | 33.96602 | -118.26550 | 2444 ft | 175 kts | 262° |
| 2026-04-26 04:03 | 33.96454 | -118.27990 | 2198 ft | 170 kts | 263° |
| 2026-04-26 04:03 | 33.96339 | -118.29125 | 2022 ft | 165 kts | 262° |
| 2026-04-26 04:03 | 33.96203 | -118.30457 | 1789 ft | 156 kts | 263° |
| 2026-04-26 04:04 | 33.96117 | -118.31299 | 1653 ft | 150 kts | 262° |
| 2026-04-26 04:04 | 33.95956 | -118.32883 | 1395 ft | 136 kts | 263° |
| 2026-04-26 04:04 | 33.95882 | -118.33612 | 1271 ft | 129 kts | 263° |
| 2026-04-26 04:04 | 33.95776 | -118.34647 | 1098 ft | 125 kts | 262° |
| 2026-04-26 04:05 | 33.95668 | -118.35696 | 928 ft | 127 kts | 263° |
| 2026-04-26 04:05 | 33.95561 | -118.36748 | 749 ft | 126 kts | 263° |
| 2026-04-26 04:05 | 33.95455 | -118.37796 | 577 ft | 126 kts | 263° |
| 2026-04-26 04:05 | 33.95345 | -118.38841 | 375 ft | 123 kts | 262° |
| 2026-04-26 04:06 | 33.95242 | -118.39872 | 229 ft | 126 kts | 263° |
| 2026-04-26 04:06 | 33.95136 | -118.40908 | 133 ft | 117 kts | 264° |
| 2026-04-26 04:06 | 33.95056 | -118.41713 | 130 ft | 76 kts | 263° |
| 2026-04-26 04:06 | 33.95016 | -118.42117 | 125 ft | 37 kts | 265° |
| 2026-04-26 04:07 | 33.94990 | -118.42343 | 124 ft | 17 kts | 260° |
| 2026-04-26 04:07 | 33.94960 | -118.42485 | 123 ft | 18 kts | 252° |
| 2026-04-26 04:07 | 33.94896 | -118.42623 | 125 ft | 20 kts | 232° |
| 2026-04-26 04:07 | 33.94844 | -118.42690 | 123 ft | 9 kts | 223° |
| 2026-04-26 04:08 | 33.94759 | -118.42765 | 126 ft | 17 kts | 212° |
| 2026-04-26 04:08 | 33.94676 | -118.42782 | 124 ft | 11 kts | 174° |
| 2026-04-26 04:08 | 33.94637 | -118.42747 | 127 ft | 7 kts | 110° |
| 2026-04-26 04:08 | 33.94638 | -118.42671 | 132 ft | 11 kts | 83° |
| 2026-04-26 04:09 | 33.94650 | -118.42562 | 132 ft | 15 kts | 82° |
| 2026-04-26 04:09 | 33.94662 | -118.42436 | 125 ft | 14 kts | 83° |
| 2026-04-26 04:09 | 33.94675 | -118.42313 | 129 ft | 15 kts | 82° |
| 2026-04-26 04:09 | 33.94687 | -118.42196 | 123 ft | 13 kts | 83° |
| 2026-04-26 04:10 | 33.94697 | -118.42098 | 132 ft | 12 kts | 83° |
| 2026-04-26 04:10 | 33.94707 | -118.42005 | 128 ft | 10 kts | 83° |
| 2026-04-26 04:10 | 33.94716 | -118.41924 | 127 ft | 9 kts | 83° |
| 2026-04-26 04:10 | 33.94723 | -118.41854 | 128 ft | 8 kts | 83° |
| 2026-04-26 04:11 | 33.94729 | -118.41795 | 124 ft | 6 kts | 83° |
| 2026-04-26 04:11 | 33.94737 | -118.41720 | 132 ft | 15 kts | 83° |
| 2026-04-26 04:11 | 33.94747 | -118.41604 | 124 ft | 14 kts | 83° |